createdAt,value
2024-04-22T06:59:49.280Z,4.98
2024-04-22T07:01:51.117Z,5.05
2024-04-22T07:03:47.229Z,5.45
2024-04-22T07:04:50.048Z,5.45
2024-04-22T07:05:51.707Z,5.69
2024-04-22T07:06:53.269Z,5.63
2024-04-22T07:07:55.578Z,5.88
2024-04-22T07:08:57.157Z,5.99
2024-04-22T07:09:58.782Z,5.96
2024-04-22T07:11:00.322Z,5.79
2024-04-22T07:12:01.889Z,5.87
2024-04-22T07:13:03.468Z,5.95
2024-04-22T07:14:04.963Z,5.85
2024-04-22T07:15:06.883Z,6.12
2024-04-22T07:16:08.404Z,6.26
2024-04-22T07:17:10.000Z,6.49
2024-04-22T07:18:11.848Z,6.58
2024-04-22T07:19:15.923Z,6.43
2024-04-22T07:20:17.621Z,6.34
2024-04-22T07:21:19.109Z,6.30
2024-04-22T07:22:22.144Z,6.29
2024-04-22T07:23:23.703Z,6.56
2024-04-22T07:24:28.270Z,6.70
2024-04-22T07:25:30.223Z,6.54
2024-04-22T07:26:31.825Z,6.29
2024-04-22T07:27:34.364Z,5.79
2024-04-22T07:28:36.358Z,5.79
2024-04-22T07:29:38.184Z,6.12
2024-04-22T07:30:40.066Z,5.86
2024-04-22T07:31:43.789Z,5.75
2024-04-22T07:32:45.863Z,5.96
2024-04-22T07:33:47.802Z,6.28
2024-04-22T07:34:49.643Z,6.16
2024-04-22T07:35:56.399Z,6.32
2024-04-22T07:37:23.813Z,6.33
2024-04-22T07:38:31.743Z,6.06
2024-04-22T07:39:35.917Z,6.05
2024-04-22T07:40:38.118Z,5.76
2024-04-22T07:41:40.041Z,6.11
2024-04-22T07:42:42.550Z,6.37
2024-04-22T07:43:44.166Z,6.72
2024-04-22T07:44:45.730Z,7.11
2024-04-22T07:45:47.212Z,7.17
2024-04-22T07:46:48.773Z,7.66
2024-04-22T07:47:53.198Z,8.10
2024-04-22T07:48:54.735Z,8.54
2024-04-22T07:49:56.298Z,8.89
2024-04-22T07:50:57.793Z,9.04
2024-04-22T07:51:59.338Z,8.61
2024-04-22T07:53:01.096Z,8.88
2024-04-22T07:54:02.909Z,8.76
2024-04-22T07:55:05.741Z,9.03
2024-04-22T07:56:18.043Z,9.21
2024-04-22T07:57:19.813Z,9.31
2024-04-22T07:58:21.613Z,9.02
2024-04-22T07:59:23.413Z,9.12
2024-04-22T08:00:25.393Z,9.06
2024-04-22T08:01:27.135Z,9.03
2024-04-22T08:02:31.159Z,9.04
2024-04-22T08:03:34.212Z,8.54
2024-04-22T08:04:36.177Z,8.66
2024-04-22T08:05:38.063Z,8.88
2024-04-22T08:06:41.084Z,9.22
2024-04-22T08:07:43.923Z,9.09
2024-04-22T08:08:45.772Z,9.06
2024-04-22T08:09:47.805Z,9.25
2024-04-22T08:10:49.488Z,8.50
2024-04-22T08:11:51.270Z,8.17
2024-04-22T08:12:52.859Z,8.47
2024-04-22T08:13:54.397Z,8.52
2024-04-22T08:14:55.895Z,8.13
2024-04-22T08:15:57.394Z,8.21
2024-04-22T08:16:59.031Z,8.55
2024-04-22T08:18:01.118Z,9.11
2024-04-22T08:19:02.676Z,8.83
2024-04-22T08:20:04.560Z,9.12
2024-04-22T08:21:08.350Z,8.75
2024-04-22T08:22:09.969Z,8.60
2024-04-22T08:23:11.538Z,9.11
2024-04-22T08:24:13.074Z,9.25
2024-04-22T08:25:14.682Z,9.57
2024-04-22T08:26:16.214Z,10.05
2024-04-22T08:27:17.790Z,9.76
2024-04-22T08:28:19.322Z,9.24
2024-04-22T08:29:20.846Z,8.51
2024-04-22T08:30:22.414Z,8.47
2024-04-22T08:31:24.079Z,9.09
2024-04-22T08:32:26.251Z,9.02
2024-04-22T08:33:28.027Z,8.52
2024-04-22T08:34:29.580Z,8.03
2024-04-22T08:35:31.119Z,8.53
2024-04-22T08:36:32.592Z,9.10
2024-04-22T08:37:34.251Z,9.12
2024-04-22T08:38:35.790Z,9.71
2024-04-22T08:39:37.301Z,9.36
2024-04-22T08:40:48.070Z,9.13
2024-04-22T08:41:49.632Z,8.75
2024-04-22T08:42:51.136Z,8.98
2024-04-22T08:43:52.759Z,9.55
2024-04-22T08:44:54.640Z,8.96
2024-04-22T08:45:56.239Z,8.71
2024-04-22T08:46:57.850Z,8.52
2024-04-22T08:48:00.332Z,8.54
2024-04-22T08:49:02.056Z,7.87
2024-04-22T08:50:03.892Z,7.93
2024-04-22T08:51:07.630Z,7.95
2024-04-22T08:52:09.279Z,7.94
2024-04-22T08:53:12.995Z,7.73
2024-04-22T08:54:19.387Z,7.87
2024-04-22T08:55:22.711Z,7.85
2024-04-22T08:56:25.886Z,8.26
2024-04-22T08:57:27.387Z,8.30
2024-04-22T08:58:29.165Z,8.98
2024-04-22T08:59:38.084Z,9.27
2024-04-22T09:00:43.996Z,9.37
2024-04-22T09:01:45.601Z,9.55
2024-04-22T09:02:47.180Z,9.80
2024-04-22T09:03:48.943Z,10.01
2024-04-22T09:04:50.626Z,9.69
2024-04-22T09:05:52.635Z,9.53
2024-04-22T09:06:54.303Z,10.05
2024-04-22T09:07:58.575Z,9.97
2024-04-22T09:09:00.206Z,9.95
2024-04-22T09:10:26.796Z,9.47
2024-04-22T09:11:47.182Z,8.86
2024-04-22T09:12:45.082Z,8.41
2024-04-22T09:13:47.059Z,8.37
2024-04-22T09:14:59.239Z,8.47
2024-04-22T09:16:03.107Z,8.56
2024-04-22T09:17:06.142Z,8.69
2024-04-22T09:18:12.659Z,8.53
2024-04-22T09:19:24.268Z,8.37
2024-04-22T09:20:34.831Z,7.95
2024-04-22T09:21:37.308Z,8.10
2024-04-22T09:22:38.830Z,8.02
2024-04-22T09:23:40.632Z,7.95
2024-04-22T09:24:44.161Z,8.43
2024-04-22T09:25:46.248Z,9.26
2024-04-22T09:26:48.263Z,9.05
2024-04-22T09:27:50.732Z,8.35
2024-04-22T09:28:53.912Z,8.42
2024-04-22T09:30:03.614Z,8.29
2024-04-22T09:31:06.658Z,8.15
2024-04-22T09:32:13.856Z,7.94
2024-04-22T09:33:24.655Z,7.77
2024-04-22T09:34:36.100Z,7.93
2024-04-22T09:35:39.728Z,7.76
2024-04-22T09:36:41.584Z,7.97
2024-04-22T09:37:45.506Z,7.95
2024-04-22T09:38:51.188Z,7.66
2024-04-22T09:39:53.874Z,7.76
2024-04-22T09:40:56.178Z,7.76
2024-04-22T09:41:59.242Z,7.76
2024-04-22T09:43:01.635Z,7.65
2024-04-22T09:44:08.615Z,7.58
2024-04-22T09:45:41.338Z,7.31
2024-04-22T09:46:46.159Z,7.55
2024-04-22T09:47:50.990Z,8.40
2024-04-22T09:48:53.143Z,9.02
2024-04-22T09:49:57.447Z,8.50
2024-04-22T09:51:01.592Z,8.54
2024-04-22T09:52:05.699Z,8.56
2024-04-22T09:53:10.077Z,8.38
2024-04-22T09:54:11.603Z,8.28
2024-04-22T09:55:13.165Z,8.17
2024-04-22T09:56:22.530Z,8.51
2024-04-22T09:57:26.552Z,8.23
2024-04-22T09:58:31.352Z,8.26
2024-04-22T09:59:33.232Z,8.16
2024-04-22T10:00:35.262Z,8.22
2024-04-22T10:01:37.088Z,8.04
2024-04-22T10:02:38.971Z,7.72
2024-04-22T10:03:40.904Z,8.00
2024-04-22T10:04:42.570Z,7.99
2024-04-22T10:05:46.431Z,7.77
2024-04-22T10:06:48.707Z,7.70
2024-04-22T10:07:50.564Z,7.32
2024-04-22T10:08:53.357Z,7.10
2024-04-22T10:09:58.115Z,7.51
2024-04-22T10:11:10.666Z,7.72
2024-04-22T10:12:16.214Z,8.21
2024-04-22T10:13:26.732Z,9.11
2024-04-22T10:14:31.001Z,8.86
2024-04-22T10:15:33.842Z,8.73
2024-04-22T10:16:35.413Z,7.71
2024-04-22T10:17:37.117Z,7.94
2024-04-22T10:18:49.028Z,8.80
2024-04-22T10:19:50.948Z,7.81
2024-04-22T10:20:56.295Z,7.31
2024-04-22T10:22:05.824Z,7.17
2024-04-22T10:23:08.235Z,6.98
2024-04-22T10:24:09.859Z,7.57
2024-04-22T10:25:13.323Z,7.90
2024-04-22T10:26:21.846Z,7.27
2024-04-22T10:27:23.517Z,8.88
2024-04-22T10:28:25.038Z,8.94
2024-04-22T10:29:26.625Z,9.44
2024-04-22T10:30:35.749Z,9.94
2024-04-22T10:31:38.798Z,9.54
2024-04-22T10:32:40.323Z,9.31
2024-04-22T10:33:41.890Z,8.70
2024-04-22T10:34:45.934Z,8.22
2024-04-22T10:35:47.972Z,8.28
2024-04-22T10:36:52.103Z,8.15
2024-04-22T10:37:54.195Z,8.00
2024-04-22T10:38:55.750Z,8.14
2024-04-22T10:39:57.270Z,7.58
2024-04-22T10:40:58.886Z,7.51
2024-04-22T10:42:00.720Z,7.52
2024-04-22T10:43:02.285Z,7.44
2024-04-22T10:44:03.948Z,6.99
2024-04-22T10:45:06.546Z,7.28
2024-04-22T10:46:08.215Z,7.18
2024-04-22T10:47:09.846Z,7.17
2024-04-22T10:48:17.307Z,6.94
2024-04-22T10:49:20.621Z,7.14
2024-04-22T10:50:23.057Z,6.94
2024-04-22T10:51:24.636Z,7.00
2024-04-22T10:52:26.198Z,7.16
2024-04-22T10:53:27.715Z,7.13
2024-04-22T10:54:29.233Z,7.18
2024-04-22T10:55:30.851Z,7.17
2024-04-22T10:56:32.335Z,7.02
2024-04-22T10:57:34.639Z,6.43
2024-04-22T10:58:36.304Z,6.48
2024-04-22T10:59:37.878Z,6.27
2024-04-22T11:00:39.682Z,5.33
2024-04-22T11:01:44.370Z,5.03
2024-04-22T11:02:47.460Z,5.10
2024-04-22T11:03:49.291Z,5.23
2024-04-22T11:04:51.240Z,5.67
2024-04-22T11:05:59.292Z,5.78
2024-04-22T11:07:01.000Z,5.16
2024-04-22T11:08:03.206Z,5.02
2024-04-22T11:09:12.008Z,5.35
2024-04-22T11:10:13.888Z,5.48
2024-04-22T11:11:16.934Z,5.61
2024-04-22T11:12:20.807Z,5.97
2024-04-22T11:13:24.234Z,6.17
2024-04-22T11:14:26.037Z,6.41
2024-04-22T11:15:27.574Z,6.69
2024-04-22T11:16:29.154Z,6.63
2024-04-22T11:17:30.772Z,6.54
2024-04-22T11:18:32.280Z,6.88
2024-04-22T11:19:33.883Z,6.15
2024-04-22T11:20:36.723Z,6.16
2024-04-22T11:21:38.419Z,6.64
2024-04-22T11:22:40.811Z,6.84
2024-04-22T11:23:42.346Z,6.75
2024-04-22T11:24:43.884Z,6.95
2024-04-22T11:25:47.702Z,7.18
2024-04-22T11:26:49.470Z,7.44
2024-04-22T11:27:51.146Z,7.54
2024-04-22T11:28:56.580Z,7.40
2024-04-22T11:29:58.451Z,7.45
2024-04-22T11:30:59.955Z,7.59
2024-04-22T11:32:02.171Z,7.22
2024-04-22T11:33:04.342Z,7.39
2024-04-22T11:34:08.844Z,7.27
2024-04-22T11:35:10.395Z,7.43
2024-04-22T11:36:13.327Z,7.27
2024-04-22T11:37:14.873Z,7.34
2024-04-22T11:38:19.598Z,7.51
2024-04-22T11:39:22.679Z,7.62
2024-04-22T11:40:24.470Z,7.32
2024-04-22T11:41:25.981Z,7.44
2024-04-22T11:42:27.609Z,7.74
2024-04-22T11:43:29.231Z,7.99
2024-04-22T11:44:30.768Z,8.08
2024-04-22T11:45:32.320Z,8.13
2024-04-22T11:46:34.075Z,8.20
2024-04-22T11:47:35.743Z,8.24
2024-04-22T11:48:39.603Z,8.42
2024-04-22T11:49:41.640Z,8.58
2024-04-22T11:50:43.235Z,8.42
2024-04-22T11:51:44.758Z,8.49
2024-04-22T11:52:46.352Z,9.09
2024-04-22T11:53:48.092Z,9.70
2024-04-22T11:54:49.654Z,9.69
2024-04-22T11:55:51.367Z,9.86
2024-04-22T11:56:53.066Z,9.29
2024-04-22T11:57:54.598Z,9.15
2024-04-22T11:58:56.119Z,9.42
2024-04-22T11:59:57.644Z,9.41
2024-04-22T12:00:59.323Z,9.46
2024-04-22T12:02:00.816Z,9.06
2024-04-22T12:03:04.319Z,9.03
2024-04-22T12:04:07.002Z,8.91
2024-04-22T12:05:14.310Z,9.30
2024-04-22T12:06:16.139Z,10.03
2024-04-22T12:07:18.047Z,10.13
2024-04-22T12:08:20.256Z,10.18
2024-04-22T12:09:21.751Z,10.08
2024-04-22T12:10:23.427Z,9.91
2024-04-22T12:11:25.380Z,9.36
2024-04-22T12:12:26.909Z,9.90
2024-04-22T12:13:29.632Z,10.86
2024-04-22T12:14:31.251Z,11.71
2024-04-22T12:15:32.802Z,11.72
2024-04-22T12:16:34.575Z,11.38
2024-04-22T12:17:36.488Z,11.96
2024-04-22T12:18:38.171Z,11.75
2024-04-22T12:19:39.685Z,11.16
2024-04-22T12:20:41.191Z,11.56
2024-04-22T12:21:42.802Z,11.09
2024-04-22T12:22:44.392Z,11.72
2024-04-22T12:23:46.819Z,12.54
2024-04-22T12:24:48.372Z,12.94
2024-04-22T12:25:50.081Z,13.58
2024-04-22T12:26:51.829Z,13.94
2024-04-22T12:27:59.144Z,14.03
2024-04-22T12:29:07.083Z,14.68
2024-04-22T12:30:10.401Z,14.69
2024-04-22T12:31:12.072Z,14.59
2024-04-22T12:32:13.662Z,14.45
2024-04-22T12:33:15.236Z,13.47
2024-04-22T12:34:17.081Z,12.82
2024-04-22T12:35:18.768Z,11.87
2024-04-22T12:36:20.273Z,11.10
2024-04-22T12:37:23.326Z,12.24
2024-04-22T12:38:24.831Z,13.48
2024-04-22T12:39:26.459Z,14.01
2024-04-22T12:40:28.044Z,14.75
2024-04-22T12:41:29.584Z,14.68
2024-04-22T12:42:33.197Z,14.65
2024-04-22T12:43:35.773Z,15.06
2024-04-22T12:44:38.261Z,14.78
2024-04-22T12:45:42.037Z,14.71
2024-04-22T12:47:02.337Z,14.44
2024-04-22T12:48:23.159Z,13.86
2024-04-22T12:49:43.524Z,13.04
2024-04-22T12:50:46.529Z,12.32
2024-04-22T12:51:48.088Z,12.01
2024-04-22T12:52:49.848Z,10.98
2024-04-22T12:53:51.497Z,11.30
2024-04-22T12:54:53.024Z,11.04
2024-04-22T12:55:54.834Z,11.05
2024-04-22T12:56:56.376Z,10.99
2024-04-22T12:58:00.586Z,11.11
2024-04-22T12:59:02.801Z,10.88
2024-04-22T13:00:10.133Z,12.03
2024-04-22T13:01:11.943Z,12.29
2024-04-22T13:02:14.050Z,12.30
2024-04-22T13:03:15.678Z,12.19
2024-04-22T13:04:17.354Z,10.76
2024-04-22T13:05:18.960Z,9.64
2024-04-22T13:06:20.545Z,9.82
2024-04-22T13:07:22.062Z,10.21
2024-04-22T13:08:23.603Z,10.49
2024-04-22T13:09:25.176Z,10.49
2024-04-22T13:10:26.727Z,10.29
2024-04-22T13:11:28.281Z,9.83
2024-04-22T13:12:29.871Z,9.59
2024-04-22T13:13:31.482Z,9.59
2024-04-22T13:14:33.072Z,9.61
2024-04-22T13:15:34.605Z,9.62
2024-04-22T13:16:36.123Z,9.62
2024-04-22T13:17:38.266Z,9.82
2024-04-22T13:18:39.973Z,9.78
2024-04-22T13:19:41.577Z,9.81
2024-04-22T13:20:43.326Z,9.93
2024-04-22T13:21:44.982Z,10.06
2024-04-22T13:22:46.622Z,9.77
2024-04-22T13:23:48.237Z,9.82
2024-04-22T13:24:49.725Z,9.79
2024-04-22T13:25:51.279Z,9.69
2024-04-22T13:26:52.840Z,9.94
2024-04-22T13:27:56.014Z,10.27
2024-04-22T13:28:57.623Z,9.95
2024-04-22T13:30:03.186Z,10.51
2024-04-22T13:31:05.409Z,10.70
2024-04-22T13:32:07.261Z,10.98
2024-04-22T13:33:09.631Z,11.64
2024-04-22T13:34:11.284Z,12.02
2024-04-22T13:35:13.266Z,12.71
2024-04-22T13:36:14.864Z,13.46
2024-04-22T13:37:16.382Z,13.38
2024-04-22T13:38:18.355Z,12.62
2024-04-22T13:39:20.547Z,12.43
2024-04-22T13:40:22.120Z,12.24
2024-04-22T13:41:25.354Z,12.57
2024-04-22T13:42:31.334Z,12.53
2024-04-22T13:43:35.069Z,13.43
2024-04-22T13:44:36.806Z,12.64
2024-04-22T13:45:38.300Z,13.42
2024-04-22T13:46:39.840Z,14.00
2024-04-22T13:47:41.480Z,13.78
2024-04-22T13:48:50.267Z,13.49
2024-04-22T13:49:52.024Z,13.00
2024-04-22T13:50:53.668Z,12.13
2024-04-22T13:51:55.183Z,12.02
2024-04-22T13:52:57.073Z,11.98
2024-04-22T13:53:58.832Z,11.88
2024-04-22T13:55:03.000Z,11.86
2024-04-22T13:56:06.668Z,11.95
2024-04-22T13:57:08.223Z,11.81
2024-04-22T13:58:09.796Z,11.58
2024-04-22T13:59:11.351Z,11.48
2024-04-22T14:00:14.781Z,11.42
2024-04-22T14:01:16.692Z,12.04
2024-04-22T14:02:18.383Z,11.88
2024-04-22T14:03:20.001Z,11.60
2024-04-22T14:04:23.717Z,10.94
2024-04-22T14:05:25.336Z,11.20
2024-04-22T14:06:28.158Z,11.17
2024-04-22T14:07:30.057Z,11.54
2024-04-22T14:08:32.185Z,12.39
2024-04-22T14:09:33.799Z,12.88
2024-04-22T14:10:35.479Z,13.49
2024-04-22T14:11:37.463Z,13.30
2024-04-22T14:12:39.048Z,12.81
2024-04-22T14:13:40.640Z,12.29
2024-04-22T14:14:42.744Z,11.70
2024-04-22T14:15:47.737Z,10.99
2024-04-22T14:16:49.919Z,10.97
2024-04-22T14:17:51.670Z,11.17
2024-04-22T14:18:54.218Z,11.84
2024-04-22T14:19:56.226Z,12.61
2024-04-22T14:20:58.576Z,13.13
2024-04-22T14:22:00.171Z,13.47
2024-04-22T14:23:02.077Z,13.39
2024-04-22T14:24:03.755Z,13.38
2024-04-22T14:25:06.002Z,13.22
2024-04-22T14:26:07.551Z,13.58
2024-04-22T14:27:09.589Z,13.24
2024-04-22T14:28:11.100Z,12.79
2024-04-22T14:29:12.580Z,12.64
2024-04-22T14:30:14.105Z,12.32
2024-04-22T14:31:15.647Z,11.76
2024-04-22T14:32:17.361Z,11.82
2024-04-22T14:33:23.176Z,11.90
2024-04-22T14:34:25.414Z,11.82
2024-04-22T14:35:26.936Z,11.02
2024-04-22T14:36:28.470Z,10.94
2024-04-22T14:37:30.061Z,10.80
2024-04-22T14:38:31.699Z,10.72
2024-04-22T14:39:34.194Z,10.92
2024-04-22T14:40:35.943Z,10.70
2024-04-22T14:41:38.149Z,10.04
2024-04-22T14:42:39.725Z,10.03
2024-04-22T14:43:41.339Z,9.70
2024-04-22T14:44:44.601Z,9.46
2024-04-22T14:45:47.089Z,9.74
2024-04-22T14:46:48.683Z,9.66
2024-04-22T14:47:53.050Z,9.64
2024-04-22T14:48:56.342Z,8.89
2024-04-22T14:49:58.305Z,9.12
2024-04-22T14:50:59.847Z,9.11
2024-04-22T14:52:01.370Z,8.73
2024-04-22T14:53:07.036Z,8.97
2024-04-22T14:54:09.592Z,8.70
2024-04-22T14:55:11.251Z,8.76
2024-04-22T14:56:13.317Z,8.24
2024-04-22T14:57:14.894Z,8.77
2024-04-22T14:58:16.421Z,8.97
2024-04-22T14:59:17.934Z,8.71
2024-04-22T15:00:19.489Z,8.86
2024-04-22T15:01:21.755Z,8.50
2024-04-22T15:02:23.308Z,8.58
2024-04-22T15:03:24.909Z,8.34
2024-04-22T15:04:26.539Z,8.66
2024-04-22T15:05:30.907Z,8.56
2024-04-22T15:06:32.501Z,8.47
2024-04-22T15:07:34.075Z,8.50
2024-04-22T15:08:35.780Z,8.30
2024-04-22T15:09:46.745Z,8.44
2024-04-22T15:10:52.741Z,8.71
2024-04-22T15:11:54.542Z,8.59
2024-04-22T15:12:56.134Z,8.31
2024-04-22T15:13:58.161Z,8.46
2024-04-22T15:14:59.768Z,8.64
2024-04-22T15:16:01.369Z,8.57
2024-04-22T15:17:02.998Z,8.80
2024-04-22T15:18:04.807Z,8.37
2024-04-22T15:19:06.363Z,8.09
2024-04-22T15:20:08.508Z,8.10
2024-04-22T15:21:10.483Z,8.02
2024-04-22T15:22:12.527Z,8.36
2024-04-22T15:23:14.021Z,8.61
2024-04-22T15:24:15.584Z,8.25
2024-04-22T15:25:17.100Z,8.15
2024-04-22T15:26:19.817Z,8.11
2024-04-22T15:27:21.348Z,8.11
2024-04-22T15:28:22.924Z,8.05
2024-04-22T15:29:24.957Z,8.33
2024-04-22T15:30:26.481Z,8.21
2024-04-22T15:31:28.099Z,8.50
2024-04-22T15:32:29.716Z,8.88
2024-04-22T15:33:31.382Z,8.73
2024-04-22T15:34:32.934Z,8.98
2024-04-22T15:35:34.429Z,8.52
2024-04-22T15:36:35.914Z,8.83
2024-04-22T15:37:37.450Z,8.83
2024-04-22T15:38:39.386Z,8.98
2024-04-22T15:39:43.213Z,8.86
2024-04-22T15:40:44.756Z,8.11
2024-04-22T15:41:46.284Z,8.28
2024-04-22T15:42:47.867Z,8.44
2024-04-22T15:43:49.479Z,8.88
2024-04-22T15:44:51.065Z,8.94
2024-04-22T15:45:52.562Z,8.97
2024-04-22T15:46:54.396Z,9.56
2024-04-22T15:47:56.235Z,9.72
2024-04-22T15:48:57.821Z,9.52
2024-04-22T15:49:59.414Z,9.60
2024-04-22T15:51:00.971Z,9.64
2024-04-22T15:52:03.867Z,9.22
2024-04-22T15:53:05.686Z,9.99
2024-04-22T15:54:07.270Z,10.36
2024-04-22T15:55:08.816Z,10.77
2024-04-22T15:56:10.340Z,10.51
2024-04-22T15:57:11.859Z,10.40
2024-04-22T15:58:13.386Z,10.35
2024-04-22T15:59:14.934Z,10.65
2024-04-22T16:00:16.537Z,10.81
2024-04-22T16:01:18.143Z,11.17
2024-04-22T16:02:19.702Z,11.64
2024-04-22T16:03:21.445Z,11.84
2024-04-22T16:04:23.135Z,11.87
2024-04-22T16:05:24.765Z,12.38
2024-04-22T16:06:26.247Z,12.22
2024-04-22T16:07:27.767Z,12.17
2024-04-22T16:08:31.047Z,12.58
2024-04-22T16:10:37.428Z,12.89
2024-04-22T16:12:40.711Z,11.33
2024-04-22T16:13:42.208Z,11.95
2024-04-22T16:14:43.987Z,12.28
2024-04-22T16:15:45.520Z,11.47
2024-04-22T16:16:47.104Z,11.77
2024-04-22T16:17:49.672Z,12.00
2024-04-22T16:18:51.182Z,11.64
2024-04-22T16:19:52.869Z,11.50
2024-04-22T16:21:01.327Z,11.28
2024-04-22T16:22:06.338Z,10.80
2024-04-22T16:23:07.798Z,10.24
2024-04-22T16:24:09.303Z,9.67
2024-04-22T16:25:10.936Z,9.87
2024-04-22T16:26:16.543Z,9.53
2024-04-22T16:27:18.057Z,8.74
2024-04-22T16:28:19.559Z,8.53
2024-04-22T16:29:22.177Z,8.58
2024-04-22T16:30:27.046Z,8.89
2024-04-22T16:31:28.583Z,8.44
2024-04-22T16:32:30.269Z,8.59
2024-04-22T16:33:31.899Z,8.70
2024-04-22T16:34:35.574Z,8.56
2024-04-22T16:35:37.746Z,8.45
2024-04-22T16:36:39.631Z,8.33
2024-04-22T16:37:42.685Z,8.38
2024-04-22T16:38:44.203Z,8.15
2024-04-22T16:39:45.739Z,8.22
2024-04-22T16:40:47.805Z,8.20
2024-04-22T16:41:49.433Z,8.36
2024-04-22T16:42:50.970Z,8.21
2024-04-22T16:43:52.536Z,8.40
2024-04-22T16:44:54.077Z,8.48
2024-04-22T16:45:55.582Z,8.29
2024-04-22T16:46:59.166Z,8.29
2024-04-22T16:48:00.790Z,8.15
2024-04-22T16:49:02.342Z,8.19
2024-04-22T16:50:03.997Z,8.13
2024-04-22T16:51:05.808Z,7.87
2024-04-22T16:52:07.327Z,7.49
2024-04-22T16:53:08.796Z,7.59
2024-04-22T16:54:10.500Z,7.97
2024-04-22T16:55:11.998Z,8.16
2024-04-22T16:56:13.562Z,7.85
2024-04-22T16:57:15.079Z,8.13
2024-04-22T16:58:16.589Z,7.84
2024-04-22T16:59:18.212Z,7.92
2024-04-22T17:00:19.816Z,8.03
2024-04-22T17:01:23.943Z,7.83
2024-04-22T17:02:25.655Z,7.49
2024-04-22T17:03:30.345Z,7.29
2024-04-22T17:04:31.892Z,7.48
